West Springfield, New Hampshire
Current Conditions -  °F | °C
As of 5:53 PM on Thursday 18 Dec 2014 (Local Time) from KLEB Reporting Station
Overcast Overcast  
Wind Chill: 28°   Ceiling: 2600
Heat Index: 35°   Visibility: 10mi
Dew Point: 26°   Wind: 9mph
Humidity: 70%   Direction: 340°NNW
Pressure: 29.85"   Gusts: NA
Location:  43.4929°N, 72.037°W
Report Text: KLEB 182253Z 34008KT 10SM OVC026 02/M03 A2985 RMK AO2 SLP114 T00171033
Loading
Personal Weather Stations






























Interactive Weather Map New forecast layout! Learn more

10-Day Weather Forecast

Advertisements
Track Severe Weather on mobile